sensor_id;sensor_type;location;lat;lon;timestamp;temperature;humidity
12847;DHT22;6492;48.128;8.320;2022-12-07T00:02:27;-0.40;72.90
12847;DHT22;6492;48.128;8.320;2022-12-07T00:06:28;-0.40;73.00
12847;DHT22;6492;48.128;8.320;2022-12-07T00:10:33;-0.40;72.90
12847;DHT22;6492;48.128;8.320;2022-12-07T00:14:34;-0.50;72.90
12847;DHT22;6492;48.128;8.320;2022-12-07T00:18:37;-0.40;73.00
12847;DHT22;6492;48.128;8.320;2022-12-07T00:22:39;-0.50;73.00
12847;DHT22;6492;48.128;8.320;2022-12-07T00:26:43;-0.50;73.00
12847;DHT22;6492;48.128;8.320;2022-12-07T00:30:45;-0.50;73.00
12847;DHT22;6492;48.128;8.320;2022-12-07T00:34:47;-0.60;72.90
12847;DHT22;6492;48.128;8.320;2022-12-07T00:39:00;-0.60;73.10
12847;DHT22;6492;48.128;8.320;2022-12-07T00:43:04;-0.60;73.20
12847;DHT22;6492;48.128;8.320;2022-12-07T00:47:05;-0.50;73.50
12847;DHT22;6492;48.128;8.320;2022-12-07T00:51:09;-0.50;73.50
12847;DHT22;6492;48.128;8.320;2022-12-07T00:55:11;-0.50;73.50
12847;DHT22;6492;48.128;8.320;2022-12-07T00:59:14;-0.50;73.50
12847;DHT22;6492;48.128;8.320;2022-12-07T01:03:16;-0.60;73.50
12847;DHT22;6492;48.128;8.320;2022-12-07T01:07:18;-0.60;73.40
12847;DHT22;6492;48.128;8.320;2022-12-07T01:11:22;-0.50;73.60
12847;DHT22;6492;48.128;8.320;2022-12-07T01:15:26;-0.50;73.60
12847;DHT22;6492;48.128;8.320;2022-12-07T01:19:28;-0.60;73.70
12847;DHT22;6492;48.128;8.320;2022-12-07T01:23:30;-0.60;73.50
12847;DHT22;6492;48.128;8.320;2022-12-07T01:27:32;-0.60;73.50
12847;DHT22;6492;48.128;8.320;2022-12-07T01:31:35;-0.60;73.50
12847;DHT22;6492;48.128;8.320;2022-12-07T01:35:37;-0.60;73.50
12847;DHT22;6492;48.128;8.320;2022-12-07T01:39:39;-0.60;73.60
12847;DHT22;6492;48.128;8.320;2022-12-07T01:44:10;-0.60;73.70
12847;DHT22;6492;48.128;8.320;2022-12-07T01:48:16;-0.60;73.70
12847;DHT22;6492;48.128;8.320;2022-12-07T01:52:22;-0.60;73.70
12847;DHT22;6492;48.128;8.320;2022-12-07T01:56:26;-0.60;73.70
12847;DHT22;6492;48.128;8.320;2022-12-07T02:00:29;-0.60;73.70
12847;DHT22;6492;48.128;8.320;2022-12-07T02:04:32;-0.60;73.80
12847;DHT22;6492;48.128;8.320;2022-12-07T02:08:34;-0.70;73.70
12847;DHT22;6492;48.128;8.320;2022-12-07T02:12:36;-0.60;73.80
12847;DHT22;6492;48.128;8.320;2022-12-07T02:16:44;-0.60;73.80
12847;DHT22;6492;48.128;8.320;2022-12-07T02:20:54;-0.60;73.70
12847;DHT22;6492;48.128;8.320;2022-12-07T02:25:07;-0.60;73.70
12847;DHT22;6492;48.128;8.320;2022-12-07T02:29:16;-0.60;73.70
12847;DHT22;6492;48.128;8.320;2022-12-07T02:33:24;-0.60;73.70
12847;DHT22;6492;48.128;8.320;2022-12-07T02:37:34;-0.70;73.50
12847;DHT22;6492;48.128;8.320;2022-12-07T02:41:42;-0.70;73.50
12847;DHT22;6492;48.128;8.320;2022-12-07T02:45:46;-0.70;73.50
12847;DHT22;6492;48.128;8.320;2022-12-07T02:49:49;-0.80;72.90
12847;DHT22;6492;48.128;8.320;2022-12-07T02:53:51;-0.80;73.10
12847;DHT22;6492;48.128;8.320;2022-12-07T02:58:14;-0.70;73.20
12847;DHT22;6492;48.128;8.320;2022-12-07T03:02:27;-0.80;73.10
12847;DHT22;6492;48.128;8.320;2022-12-07T03:06:32;-0.80;73.30
12847;DHT22;6492;48.128;8.320;2022-12-07T03:10:46;-0.70;73.30
12847;DHT22;6492;48.128;8.320;2022-12-07T03:14:55;-0.80;73.20
12847;DHT22;6492;48.128;8.320;2022-12-07T03:19:03;-0.80;73.20
12847;DHT22;6492;48.128;8.320;2022-12-07T03:23:08;-0.80;73.30
12847;DHT22;6492;48.128;8.320;2022-12-07T03:27:14;-0.80;73.30
12847;DHT22;6492;48.128;8.320;2022-12-07T03:31:19;-0.80;73.30
12847;DHT22;6492;48.128;8.320;2022-12-07T03:35:27;-0.80;73.40
12847;DHT22;6492;48.128;8.320;2022-12-07T03:39:36;-0.80;73.60
12847;DHT22;6492;48.128;8.320;2022-12-07T03:43:40;-0.80;73.60
12847;DHT22;6492;48.128;8.320;2022-12-07T03:47:46;-0.80;73.60
12847;DHT22;6492;48.128;8.320;2022-12-07T03:51:55;-0.80;73.70
12847;DHT22;6492;48.128;8.320;2022-12-07T03:55:59;-0.80;73.80
12847;DHT22;6492;48.128;8.320;2022-12-07T04:00:05;-0.90;73.50
12847;DHT22;6492;48.128;8.320;2022-12-07T04:04:09;-0.90;73.20
12847;DHT22;6492;48.128;8.320;2022-12-07T04:08:12;-0.90;73.00
12847;DHT22;6492;48.128;8.320;2022-12-07T04:12:14;-1.00;72.70
12847;DHT22;6492;48.128;8.320;2022-12-07T04:16:30;-1.00;72.10
12847;DHT22;6492;48.128;8.320;2022-12-07T04:20:33;-1.10;71.60
12847;DHT22;6492;48.128;8.320;2022-12-07T04:24:36;-1.20;71.30
12847;DHT22;6492;48.128;8.320;2022-12-07T04:28:38;-1.20;71.20
12847;DHT22;6492;48.128;8.320;2022-12-07T04:32:39;-1.20;71.30
12847;DHT22;6492;48.128;8.320;2022-12-07T04:36:41;-1.20;71.40
12847;DHT22;6492;48.128;8.320;2022-12-07T04:40:45;-1.20;71.40
12847;DHT22;6492;48.128;8.320;2022-12-07T04:44:46;-1.20;71.40
12847;DHT22;6492;48.128;8.320;2022-12-07T04:48:48;-1.30;71.40
12847;DHT22;6492;48.128;8.320;2022-12-07T04:52:50;-1.30;71.30
12847;DHT22;6492;48.128;8.320;2022-12-07T04:56:53;-1.30;71.20
12847;DHT22;6492;48.128;8.320;2022-12-07T05:00:55;-1.30;71.00
12847;DHT22;6492;48.128;8.320;2022-12-07T05:04:57;-1.40;70.80
12847;DHT22;6492;48.128;8.320;2022-12-07T05:08:59;-1.40;70.50
12847;DHT22;6492;48.128;8.320;2022-12-07T05:13:02;-1.40;70.40
12847;DHT22;6492;48.128;8.320;2022-12-07T05:17:29;-1.40;70.50
12847;DHT22;6492;48.128;8.320;2022-12-07T05:21:31;-1.50;70.50
12847;DHT22;6492;48.128;8.320;2022-12-07T05:25:33;-1.50;70.50
12847;DHT22;6492;48.128;8.320;2022-12-07T05:29:36;-1.50;70.50
12847;DHT22;6492;48.128;8.320;2022-12-07T05:33:38;-1.50;70.40
12847;DHT22;6492;48.128;8.320;2022-12-07T05:37:40;-1.60;70.30
12847;DHT22;6492;48.128;8.320;2022-12-07T05:41:41;-1.60;70.20
12847;DHT22;6492;48.128;8.320;2022-12-07T05:46:14;-1.70;69.80
12847;DHT22;6492;48.128;8.320;2022-12-07T05:50:24;-1.80;69.40
12847;DHT22;6492;48.128;8.320;2022-12-07T05:54:26;-1.90;69.20
12847;DHT22;6492;48.128;8.320;2022-12-07T05:58:27;-2.10;68.70
12847;DHT22;6492;48.128;8.320;2022-12-07T06:02:48;-2.30;68.20
12847;DHT22;6492;48.128;8.320;2022-12-07T06:06:50;-2.40;68.20
12847;DHT22;6492;48.128;8.320;2022-12-07T06:10:52;-2.50;68.20
12847;DHT22;6492;48.128;8.320;2022-12-07T06:15:14;-2.70;68.00
12847;DHT22;6492;48.128;8.320;2022-12-07T06:19:17;-2.80;68.10
12847;DHT22;6492;48.128;8.320;2022-12-07T06:23:19;-3.00;68.00
12847;DHT22;6492;48.128;8.320;2022-12-07T06:27:21;-3.10;67.80
12847;DHT22;6492;48.128;8.320;2022-12-07T06:31:23;-3.20;67.60
12847;DHT22;6492;48.128;8.320;2022-12-07T06:35:34;-3.40;67.20
12847;DHT22;6492;48.128;8.320;2022-12-07T06:39:37;-3.50;67.30
12847;DHT22;6492;48.128;8.320;2022-12-07T06:43:39;-3.70;67.10
12847;DHT22;6492;48.128;8.320;2022-12-07T06:47:42;-3.90;67.20
12847;DHT22;6492;48.128;8.320;2022-12-07T06:51:45;-4.00;67.40
12847;DHT22;6492;48.128;8.320;2022-12-07T06:55:47;-4.00;67.80
12847;DHT22;6492;48.128;8.320;2022-12-07T06:59:49;-4.00;68.70
12847;DHT22;6492;48.128;8.320;2022-12-07T07:03:52;-3.90;69.60
12847;DHT22;6492;48.128;8.320;2022-12-07T07:07:55;-3.90;69.80
12847;DHT22;6492;48.128;8.320;2022-12-07T07:11:57;-4.00;69.80
12847;DHT22;6492;48.128;8.320;2022-12-07T07:15:59;-4.00;69.90
12847;DHT22;6492;48.128;8.320;2022-12-07T07:20:00;-4.10;70.00
12847;DHT22;6492;48.128;8.320;2022-12-07T07:24:04;-4.10;70.10
12847;DHT22;6492;48.128;8.320;2022-12-07T07:28:06;-4.10;70.40
12847;DHT22;6492;48.128;8.320;2022-12-07T07:32:08;-4.10;70.60
12847;DHT22;6492;48.128;8.320;2022-12-07T07:36:10;-4.20;70.40
12847;DHT22;6492;48.128;8.320;2022-12-07T07:40:13;-4.20;70.50
12847;DHT22;6492;48.128;8.320;2022-12-07T07:44:15;-4.10;70.90
12847;DHT22;6492;48.128;8.320;2022-12-07T07:48:17;-4.00;71.40
12847;DHT22;6492;48.128;8.320;2022-12-07T07:52:19;-3.70;72.10
12847;DHT22;6492;48.128;8.320;2022-12-07T07:56:22;-3.50;72.60
12847;DHT22;6492;48.128;8.320;2022-12-07T08:00:24;-3.40;72.80
12847;DHT22;6492;48.128;8.320;2022-12-07T08:04:25;-3.20;73.20
12847;DHT22;6492;48.128;8.320;2022-12-07T08:08:27;-3.00;73.40
12847;DHT22;6492;48.128;8.320;2022-12-07T08:12:30;-2.90;73.60
12847;DHT22;6492;48.128;8.320;2022-12-07T08:16:32;-2.70;73.90
12847;DHT22;6492;48.128;8.320;2022-12-07T08:20:35;-2.60;74.00
12847;DHT22;6492;48.128;8.320;2022-12-07T08:24:38;-2.40;74.20
12847;DHT22;6492;48.128;8.320;2022-12-07T08:28:42;-2.20;74.40
12847;DHT22;6492;48.128;8.320;2022-12-07T08:32:45;-2.00;74.60
12847;DHT22;6492;48.128;8.320;2022-12-07T08:36:47;-1.80;74.80
12847;DHT22;6492;48.128;8.320;2022-12-07T08:40:53;-1.60;74.90
12847;DHT22;6492;48.128;8.320;2022-12-07T08:44:57;-1.50;75.10
12847;DHT22;6492;48.128;8.320;2022-12-07T08:49:03;-1.20;75.20
12847;DHT22;6492;48.128;8.320;2022-12-07T08:53:06;-1.00;75.40
12847;DHT22;6492;48.128;8.320;2022-12-07T08:57:09;-0.90;75.70
12847;DHT22;6492;48.128;8.320;2022-12-07T09:01:13;-0.80;75.40
12847;DHT22;6492;48.128;8.320;2022-12-07T09:05:15;-0.70;71.40
12847;DHT22;6492;48.128;8.320;2022-12-07T09:09:17;-0.70;64.80
12847;DHT22;6492;48.128;8.320;2022-12-07T09:13:19;-0.60;58.10
12847;DHT22;6492;48.128;8.320;2022-12-07T09:17:22;-0.60;53.60
12847;DHT22;6492;48.128;8.320;2022-12-07T09:21:24;-0.40;50.40
12847;DHT22;6492;48.128;8.320;2022-12-07T09:25:26;-0.40;45.30
12847;DHT22;6492;48.128;8.320;2022-12-07T09:29:28;-0.30;43.90
12847;DHT22;6492;48.128;8.320;2022-12-07T09:33:31;-0.20;41.40
12847;DHT22;6492;48.128;8.320;2022-12-07T09:37:33;0.00;43.50
12847;DHT22;6492;48.128;8.320;2022-12-07T09:41:38;0.20;43.70
12847;DHT22;6492;48.128;8.320;2022-12-07T09:45:41;0.40;37.90
12847;DHT22;6492;48.128;8.320;2022-12-07T09:49:44;0.50;37.40
12847;DHT22;6492;48.128;8.320;2022-12-07T09:53:47;0.80;35.40
12847;DHT22;6492;48.128;8.320;2022-12-07T09:57:49;0.90;32.70
12847;DHT22;6492;48.128;8.320;2022-12-07T10:01:52;1.10;32.40
12847;DHT22;6492;48.128;8.320;2022-12-07T10:05:55;1.20;31.90
12847;DHT22;6492;48.128;8.320;2022-12-07T10:09:58;1.30;31.90
12847;DHT22;6492;48.128;8.320;2022-12-07T10:14:11;1.50;29.50
12847;DHT22;6492;48.128;8.320;2022-12-07T10:18:35;1.80;28.30
12847;DHT22;6492;48.128;8.320;2022-12-07T10:22:54;2.00;26.90
12847;DHT22;6492;48.128;8.320;2022-12-07T10:26:56;2.30;27.80
12847;DHT22;6492;48.128;8.320;2022-12-07T10:31:01;2.60;25.90
12847;DHT22;6492;48.128;8.320;2022-12-07T10:35:23;2.90;23.40
12847;DHT22;6492;48.128;8.320;2022-12-07T10:39:26;2.90;25.20
12847;DHT22;6492;48.128;8.320;2022-12-07T10:43:28;3.30;25.10
12847;DHT22;6492;48.128;8.320;2022-12-07T10:47:35;3.50;21.60
12847;DHT22;6492;48.128;8.320;2022-12-07T10:51:41;3.60;20.70
12847;DHT22;6492;48.128;8.320;2022-12-07T10:55:58;3.70;21.10
12847;DHT22;6492;48.128;8.320;2022-12-07T11:00:13;3.60;18.60
12847;DHT22;6492;48.128;8.320;2022-12-07T11:04:24;3.70;15.00
12847;DHT22;6492;48.128;8.320;2022-12-07T11:08:41;3.80;16.00
12847;DHT22;6492;48.128;8.320;2022-12-07T11:13:04;4.00;16.90
12847;DHT22;6492;48.128;8.320;2022-12-07T11:17:13;4.50;16.50
12847;DHT22;6492;48.128;8.320;2022-12-07T11:21:25;4.70;16.10
12847;DHT22;6492;48.128;8.320;2022-12-07T11:25:32;4.80;13.80
12847;DHT22;6492;48.128;8.320;2022-12-07T11:29:49;5.00;14.60
12847;DHT22;6492;48.128;8.320;2022-12-07T11:33:57;5.10;11.40
12847;DHT22;6492;48.128;8.320;2022-12-07T11:38:09;5.30;12.00
12847;DHT22;6492;48.128;8.320;2022-12-07T11:42:14;5.80;10.60
12847;DHT22;6492;48.128;8.320;2022-12-07T11:46:22;5.90;9.90
12847;DHT22;6492;48.128;8.320;2022-12-07T11:50:32;5.80;9.70
12847;DHT22;6492;48.128;8.320;2022-12-07T11:54:39;5.60;10.10
12847;DHT22;6492;48.128;8.320;2022-12-07T11:58:49;5.20;10.30
12847;DHT22;6492;48.128;8.320;2022-12-07T12:02:56;5.00;12.40
12847;DHT22;6492;48.128;8.320;2022-12-07T12:07:00;4.80;12.80
12847;DHT22;6492;48.128;8.320;2022-12-07T12:11:11;4.70;13.30
12847;DHT22;6492;48.128;8.320;2022-12-07T12:15:27;4.40;12.90
12847;DHT22;6492;48.128;8.320;2022-12-07T12:19:35;4.00;15.10
12847;DHT22;6492;48.128;8.320;2022-12-07T12:23:42;3.80;15.00
12847;DHT22;6492;48.128;8.320;2022-12-07T12:27:47;3.70;15.10
12847;DHT22;6492;48.128;8.320;2022-12-07T12:32:06;3.70;15.90
12847;DHT22;6492;48.128;8.320;2022-12-07T12:36:26;3.70;16.50
12847;DHT22;6492;48.128;8.320;2022-12-07T12:40:49;3.60;17.00
12847;DHT22;6492;48.128;8.320;2022-12-07T12:45:17;3.60;16.80
12847;DHT22;6492;48.128;8.320;2022-12-07T12:54:09;3.50;16.90
12847;DHT22;6492;48.128;8.320;2022-12-07T12:58:29;3.40;17.80
12847;DHT22;6492;48.128;8.320;2022-12-07T13:02:34;3.30;17.40
12847;DHT22;6492;48.128;8.320;2022-12-07T13:06:37;3.00;16.90
12847;DHT22;6492;48.128;8.320;2022-12-07T13:10:43;2.80;16.70
12847;DHT22;6492;48.128;8.320;2022-12-07T13:14:56;2.60;17.70
12847;DHT22;6492;48.128;8.320;2022-12-07T13:18:58;2.60;18.70
12847;DHT22;6492;48.128;8.320;2022-12-07T13:23:12;2.50;19.00
12847;DHT22;6492;48.128;8.320;2022-12-07T13:27:17;2.30;19.10
12847;DHT22;6492;48.128;8.320;2022-12-07T13:31:32;2.20;18.80
12847;DHT22;6492;48.128;8.320;2022-12-07T13:35:36;2.10;19.80
12847;DHT22;6492;48.128;8.320;2022-12-07T13:39:46;2.00;19.70
12847;DHT22;6492;48.128;8.320;2022-12-07T13:43:58;2.00;19.80
12847;DHT22;6492;48.128;8.320;2022-12-07T13:48:00;2.00;19.00
12847;DHT22;6492;48.128;8.320;2022-12-07T13:52:15;2.10;18.40
12847;DHT22;6492;48.128;8.320;2022-12-07T13:56:17;2.00;18.10
12847;DHT22;6492;48.128;8.320;2022-12-07T14:00:22;1.90;18.30
12847;DHT22;6492;48.128;8.320;2022-12-07T14:04:35;1.90;19.20
12847;DHT22;6492;48.128;8.320;2022-12-07T14:08:38;1.80;19.80
12847;DHT22;6492;48.128;8.320;2022-12-07T14:12:42;1.80;19.90
12847;DHT22;6492;48.128;8.320;2022-12-07T14:16:59;1.70;20.20
12847;DHT22;6492;48.128;8.320;2022-12-07T14:21:05;1.60;21.20
12847;DHT22;6492;48.128;8.320;2022-12-07T14:25:19;1.50;21.80
12847;DHT22;6492;48.128;8.320;2022-12-07T14:29:29;1.50;22.60
12847;DHT22;6492;48.128;8.320;2022-12-07T14:33:33;1.40;23.00
12847;DHT22;6492;48.128;8.320;2022-12-07T14:37:35;1.30;23.40
12847;DHT22;6492;48.128;8.320;2022-12-07T14:41:37;1.20;23.80
12847;DHT22;6492;48.128;8.320;2022-12-07T14:45:53;1.10;24.60
12847;DHT22;6492;48.128;8.320;2022-12-07T14:49:57;1.00;24.80
12847;DHT22;6492;48.128;8.320;2022-12-07T14:53:59;0.90;25.50
12847;DHT22;6492;48.128;8.320;2022-12-07T14:58:01;0.80;26.00
12847;DHT22;6492;48.128;8.320;2022-12-07T15:02:03;0.70;26.50
12847;DHT22;6492;48.128;8.320;2022-12-07T15:06:06;0.60;26.90
12847;DHT22;6492;48.128;8.320;2022-12-07T15:10:15;0.60;27.40
12847;DHT22;6492;48.128;8.320;2022-12-07T15:14:18;0.50;27.70
12847;DHT22;6492;48.128;8.320;2022-12-07T15:18:28;0.40;28.00
12847;DHT22;6492;48.128;8.320;2022-12-07T15:22:32;0.30;28.40
12847;DHT22;6492;48.128;8.320;2022-12-07T15:26:34;0.20;29.10
12847;DHT22;6492;48.128;8.320;2022-12-07T15:30:36;0.20;29.50
12847;DHT22;6492;48.128;8.320;2022-12-07T15:34:38;0.10;29.90
12847;DHT22;6492;48.128;8.320;2022-12-07T15:38:41;0.00;30.30
12847;DHT22;6492;48.128;8.320;2022-12-07T15:42:43;-0.10;30.90
12847;DHT22;6492;48.128;8.320;2022-12-07T15:46:45;-0.20;31.10
12847;DHT22;6492;48.128;8.320;2022-12-07T15:50:47;-0.20;31.80
12847;DHT22;6492;48.128;8.320;2022-12-07T15:54:50;-0.30;32.40
12847;DHT22;6492;48.128;8.320;2022-12-07T15:58:52;-0.50;33.00
12847;DHT22;6492;48.128;8.320;2022-12-07T16:02:54;-0.70;33.40
12847;DHT22;6492;48.128;8.320;2022-12-07T16:06:56;-1.00;34.40
12847;DHT22;6492;48.128;8.320;2022-12-07T16:10:59;-1.20;35.90
12847;DHT22;6492;48.128;8.320;2022-12-07T16:15:01;-1.40;37.20
12847;DHT22;6492;48.128;8.320;2022-12-07T16:19:03;-1.60;37.30
12847;DHT22;6492;48.128;8.320;2022-12-07T16:23:05;-1.90;37.80
12847;DHT22;6492;48.128;8.320;2022-12-07T16:27:09;-2.10;39.50
12847;DHT22;6492;48.128;8.320;2022-12-07T16:31:12;-2.20;41.10
12847;DHT22;6492;48.128;8.320;2022-12-07T16:35:15;-2.40;43.10
12847;DHT22;6492;48.128;8.320;2022-12-07T16:39:16;-2.50;43.30
12847;DHT22;6492;48.128;8.320;2022-12-07T16:43:20;-2.80;44.40
12847;DHT22;6492;48.128;8.320;2022-12-07T16:47:22;-2.90;47.00
12847;DHT22;6492;48.128;8.320;2022-12-07T16:51:23;-2.90;49.60
12847;DHT22;6492;48.128;8.320;2022-12-07T16:55:25;-3.00;51.60
12847;DHT22;6492;48.128;8.320;2022-12-07T16:59:28;-3.10;52.60
12847;DHT22;6492;48.128;8.320;2022-12-07T17:03:30;-3.10;54.00
12847;DHT22;6492;48.128;8.320;2022-12-07T17:07:32;-3.20;54.80
12847;DHT22;6492;48.128;8.320;2022-12-07T17:11:34;-3.30;54.50
12847;DHT22;6492;48.128;8.320;2022-12-07T17:15:38;-3.30;56.60
12847;DHT22;6492;48.128;8.320;2022-12-07T17:19:40;-3.40;56.90
12847;DHT22;6492;48.128;8.320;2022-12-07T17:23:51;-3.50;57.80
12847;DHT22;6492;48.128;8.320;2022-12-07T17:27:53;-3.60;57.40
12847;DHT22;6492;48.128;8.320;2022-12-07T17:31:57;-3.70;58.80
12847;DHT22;6492;48.128;8.320;2022-12-07T17:35:58;-3.70;60.40
12847;DHT22;6492;48.128;8.320;2022-12-07T17:40:00;-3.70;61.30
12847;DHT22;6492;48.128;8.320;2022-12-07T17:44:03;-3.60;62.20
12847;DHT22;6492;48.128;8.320;2022-12-07T17:48:07;-3.60;62.80
12847;DHT22;6492;48.128;8.320;2022-12-07T17:52:08;-3.50;63.30
12847;DHT22;6492;48.128;8.320;2022-12-07T17:56:28;-3.40;64.70
12847;DHT22;6492;48.128;8.320;2022-12-07T18:00:31;-3.20;66.80
12847;DHT22;6492;48.128;8.320;2022-12-07T18:04:50;-3.00;67.40
12847;DHT22;6492;48.128;8.320;2022-12-07T18:08:53;-2.80;67.80
12847;DHT22;6492;48.128;8.320;2022-12-07T18:12:58;-2.70;68.00
12847;DHT22;6492;48.128;8.320;2022-12-07T18:17:13;-2.70;67.80
12847;DHT22;6492;48.128;8.320;2022-12-07T18:21:19;-2.70;67.70
12847;DHT22;6492;48.128;8.320;2022-12-07T18:25:23;-2.60;67.90
12847;DHT22;6492;48.128;8.320;2022-12-07T18:29:25;-2.70;67.70
12847;DHT22;6492;48.128;8.320;2022-12-07T18:33:27;-2.60;67.80
12847;DHT22;6492;48.128;8.320;2022-12-07T18:37:30;-2.60;67.80
12847;DHT22;6492;48.128;8.320;2022-12-07T18:41:33;-2.60;67.70
12847;DHT22;6492;48.128;8.320;2022-12-07T18:45:35;-2.60;67.60
12847;DHT22;6492;48.128;8.320;2022-12-07T18:49:37;-2.60;67.60
12847;DHT22;6492;48.128;8.320;2022-12-07T18:53:40;-2.60;67.60
12847;DHT22;6492;48.128;8.320;2022-12-07T18:57:48;-2.50;67.70
12847;DHT22;6492;48.128;8.320;2022-12-07T19:01:55;-2.50;67.50
12847;DHT22;6492;48.128;8.320;2022-12-07T19:05:57;-2.60;67.00
12847;DHT22;6492;48.128;8.320;2022-12-07T19:10:00;-2.70;66.00
12847;DHT22;6492;48.128;8.320;2022-12-07T19:14:04;-2.90;65.00
12847;DHT22;6492;48.128;8.320;2022-12-07T19:18:06;-3.10;65.50
12847;DHT22;6492;48.128;8.320;2022-12-07T19:22:16;-3.20;64.40
12847;DHT22;6492;48.128;8.320;2022-12-07T19:26:20;-3.40;64.60
12847;DHT22;6492;48.128;8.320;2022-12-07T19:30:22;-3.50;64.50
12847;DHT22;6492;48.128;8.320;2022-12-07T19:34:24;-3.70;63.90
12847;DHT22;6492;48.128;8.320;2022-12-07T19:38:26;-3.80;64.30
12847;DHT22;6492;48.128;8.320;2022-12-07T19:42:40;-3.90;64.60
12847;DHT22;6492;48.128;8.320;2022-12-07T19:46:43;-4.00;64.40
12847;DHT22;6492;48.128;8.320;2022-12-07T19:50:48;-4.20;64.20
12847;DHT22;6492;48.128;8.320;2022-12-07T19:54:50;-4.30;64.30
12847;DHT22;6492;48.128;8.320;2022-12-07T19:58:57;-4.40;64.30
12847;DHT22;6492;48.128;8.320;2022-12-07T20:02:59;-4.50;64.50
12847;DHT22;6492;48.128;8.320;2022-12-07T20:07:02;-4.50;65.30
12847;DHT22;6492;48.128;8.320;2022-12-07T20:11:03;-4.60;65.50
12847;DHT22;6492;48.128;8.320;2022-12-07T20:15:27;-4.70;65.60
12847;DHT22;6492;48.128;8.320;2022-12-07T20:19:29;-4.80;65.10
12847;DHT22;6492;48.128;8.320;2022-12-07T20:23:31;-4.90;65.20
12847;DHT22;6492;48.128;8.320;2022-12-07T20:27:33;-4.90;65.70
12847;DHT22;6492;48.128;8.320;2022-12-07T20:31:45;-4.90;66.20
12847;DHT22;6492;48.128;8.320;2022-12-07T20:35:47;-4.80;66.80
12847;DHT22;6492;48.128;8.320;2022-12-07T20:39:49;-4.90;66.80
12847;DHT22;6492;48.128;8.320;2022-12-07T20:43:50;-4.90;67.00
12847;DHT22;6492;48.128;8.320;2022-12-07T20:47:54;-4.90;66.90
12847;DHT22;6492;48.128;8.320;2022-12-07T20:52:03;-4.90;67.50
12847;DHT22;6492;48.128;8.320;2022-12-07T20:56:05;-4.80;67.60
12847;DHT22;6492;48.128;8.320;2022-12-07T21:00:08;-4.80;67.80
12847;DHT22;6492;48.128;8.320;2022-12-07T21:04:12;-4.70;68.40
12847;DHT22;6492;48.128;8.320;2022-12-07T21:08:14;-4.80;68.00
12847;DHT22;6492;48.128;8.320;2022-12-07T21:12:16;-4.90;67.50
12847;DHT22;6492;48.128;8.320;2022-12-07T21:16:19;-5.10;67.20
12847;DHT22;6492;48.128;8.320;2022-12-07T21:20:22;-5.20;67.20
12847;DHT22;6492;48.128;8.320;2022-12-07T21:24:25;-5.10;68.00
12847;DHT22;6492;48.128;8.320;2022-12-07T21:28:27;-5.00;68.50
12847;DHT22;6492;48.128;8.320;2022-12-07T21:32:38;-4.90;68.90
12847;DHT22;6492;48.128;8.320;2022-12-07T21:36:41;-5.00;68.70
12847;DHT22;6492;48.128;8.320;2022-12-07T21:40:44;-5.00;68.70
12847;DHT22;6492;48.128;8.320;2022-12-07T21:44:46;-4.90;69.20
12847;DHT22;6492;48.128;8.320;2022-12-07T21:48:49;-4.90;69.50
12847;DHT22;6492;48.128;8.320;2022-12-07T21:52:52;-4.80;69.70
12847;DHT22;6492;48.128;8.320;2022-12-07T21:56:54;-4.70;70.20
12847;DHT22;6492;48.128;8.320;2022-12-07T22:00:57;-4.60;70.50
12847;DHT22;6492;48.128;8.320;2022-12-07T22:04:59;-4.40;70.80
12847;DHT22;6492;48.128;8.320;2022-12-07T22:09:03;-4.40;70.90
12847;DHT22;6492;48.128;8.320;2022-12-07T22:13:05;-4.40;70.80
12847;DHT22;6492;48.128;8.320;2022-12-07T22:17:07;-4.30;71.20
12847;DHT22;6492;48.128;8.320;2022-12-07T22:21:09;-4.20;71.30
12847;DHT22;6492;48.128;8.320;2022-12-07T22:25:13;-4.10;71.70
12847;DHT22;6492;48.128;8.320;2022-12-07T22:29:15;-4.10;71.60
12847;DHT22;6492;48.128;8.320;2022-12-07T22:33:17;-4.20;71.30
12847;DHT22;6492;48.128;8.320;2022-12-07T22:37:19;-4.20;71.10
12847;DHT22;6492;48.128;8.320;2022-12-07T22:41:23;-4.30;70.90
12847;DHT22;6492;48.128;8.320;2022-12-07T22:45:25;-4.40;70.60
12847;DHT22;6492;48.128;8.320;2022-12-07T22:49:27;-4.50;70.30
12847;DHT22;6492;48.128;8.320;2022-12-07T22:53:29;-4.60;70.30
12847;DHT22;6492;48.128;8.320;2022-12-07T22:57:32;-4.70;70.10
12847;DHT22;6492;48.128;8.320;2022-12-07T23:01:34;-4.80;69.70
12847;DHT22;6492;48.128;8.320;2022-12-07T23:05:40;-4.90;69.70
12847;DHT22;6492;48.128;8.320;2022-12-07T23:09:42;-4.90;69.50
12847;DHT22;6492;48.128;8.320;2022-12-07T23:13:45;-5.00;69.30
12847;DHT22;6492;48.128;8.320;2022-12-07T23:17:47;-5.00;69.50
12847;DHT22;6492;48.128;8.320;2022-12-07T23:21:49;-5.10;69.50
12847;DHT22;6492;48.128;8.320;2022-12-07T23:25:51;-5.10;69.60
12847;DHT22;6492;48.128;8.320;2022-12-07T23:29:54;-5.10;69.60
12847;DHT22;6492;48.128;8.320;2022-12-07T23:33:56;-5.20;69.50
12847;DHT22;6492;48.128;8.320;2022-12-07T23:37:57;-5.30;69.30
12847;DHT22;6492;48.128;8.320;2022-12-07T23:41:59;-5.40;68.90
12847;DHT22;6492;48.128;8.320;2022-12-07T23:46:05;-5.60;68.60
12847;DHT22;6492;48.128;8.320;2022-12-07T23:50:08;-5.70;68.40
12847;DHT22;6492;48.128;8.320;2022-12-07T23:54:10;-5.80;68.20
12847;DHT22;6492;48.128;8.320;2022-12-07T23:58:12;-5.80;68.30
